createdAt,value
2018-05-10T00:03:00.942Z,11.73
2018-05-10T00:08:02.271Z,10.00
2018-05-10T00:13:03.578Z,12.60
2018-05-10T00:18:05.641Z,7.90
2018-05-10T00:23:06.933Z,19.27
2018-05-10T00:28:08.249Z,8.90
2018-05-10T00:33:10.294Z,9.10
2018-05-10T00:38:11.602Z,8.77
2018-05-10T00:43:12.947Z,12.20
2018-05-10T00:48:14.992Z,11.00
2018-05-10T00:53:16.297Z,8.97
2018-05-10T00:58:17.602Z,9.90
2018-05-10T01:03:18.930Z,15.30
2018-05-10T01:08:20.231Z,9.30
2018-05-10T01:13:21.573Z,7.77
2018-05-10T01:18:22.894Z,10.57
2018-05-10T01:23:24.203Z,14.43
2018-05-10T01:28:25.518Z,14.30
2018-05-10T01:33:26.826Z,10.17
2018-05-10T01:38:28.134Z,9.27
2018-05-10T01:43:30.180Z,8.33
2018-05-10T01:48:31.474Z,10.70
2018-05-10T01:53:32.797Z,10.10
2018-05-10T01:58:34.093Z,11.07
2018-05-10T02:03:35.434Z,14.57
2018-05-10T02:08:36.757Z,9.50
2018-05-10T02:13:38.062Z,8.50
2018-05-10T02:18:39.574Z,18.90
2018-05-10T02:23:41.606Z,8.03
2018-05-10T02:28:43.809Z,12.50
2018-05-10T02:33:45.113Z,14.53
2018-05-10T02:38:46.446Z,14.20
2018-05-10T02:43:47.781Z,13.30
2018-05-10T02:48:49.090Z,13.03
2018-05-10T02:53:50.402Z,16.63
2018-05-10T02:58:51.698Z,14.00
2018-05-10T03:03:53.028Z,13.97
2018-05-10T03:08:54.323Z,14.00
2018-05-10T03:13:55.618Z,11.33
2018-05-10T03:18:56.929Z,12.83
2018-05-10T03:23:58.238Z,20.43
2018-05-10T03:28:59.530Z,16.30
2018-05-10T03:34:00.874Z,12.90
2018-05-10T03:39:02.222Z,14.23
2018-05-10T03:44:03.539Z,9.03
2018-05-10T03:49:04.854Z,21.30
2018-05-10T03:54:06.149Z,9.57
2018-05-10T03:59:07.542Z,15.25
2018-05-10T04:04:32.087Z,10.07
2018-05-10T04:09:52.070Z,16.27
2018-05-10T04:14:54.188Z,11.07
2018-05-10T04:19:55.478Z,10.57
2018-05-10T04:24:56.769Z,9.97
2018-05-10T04:29:58.069Z,10.83
2018-05-10T04:34:59.537Z,9.67
2018-05-10T04:40:00.834Z,9.27
2018-05-10T04:45:02.177Z,10.57
2018-05-10T04:50:03.502Z,11.47
2018-05-10T04:55:04.811Z,7.90
2018-05-10T05:00:06.102Z,11.90
2018-05-10T05:05:07.421Z,16.93
2018-05-10T05:10:08.819Z,14.50
2018-05-10T05:15:10.247Z,9.97
2018-05-10T05:20:11.582Z,9.47
2018-05-10T05:25:12.907Z,15.03
2018-05-10T05:30:15.017Z,14.20
2018-05-10T05:35:16.402Z,10.00
2018-05-10T05:40:18.714Z,10.53
2018-05-10T05:45:20.016Z,11.97
2018-05-10T05:50:22.062Z,12.93
2018-05-10T05:55:23.371Z,13.57
2018-05-10T06:00:24.706Z,11.80
2018-05-10T06:05:26.754Z,13.63
2018-05-10T06:10:28.074Z,15.20
2018-05-10T06:15:30.274Z,15.10
2018-05-10T06:20:32.300Z,9.40
2018-05-10T06:25:33.619Z,11.70
2018-05-10T06:30:35.002Z,10.07
2018-05-10T06:35:36.326Z,18.40
2018-05-10T06:40:37.652Z,16.60
2018-05-10T06:45:38.961Z,25.47
2018-05-10T06:50:41.040Z,22.53
2018-05-10T06:55:42.955Z,31.33
2018-05-10T07:00:44.277Z,36.80
2018-05-10T07:05:45.594Z,27.47
2018-05-10T07:10:46.943Z,29.27
2018-05-10T07:15:49.395Z,30.23
2018-05-10T07:20:50.731Z,30.40
2018-05-10T07:25:52.050Z,31.80
2018-05-10T07:30:53.400Z,30.63
2018-05-10T07:35:54.697Z,31.03
2018-05-10T07:40:56.005Z,28.00
2018-05-10T07:45:58.070Z,31.47
2018-05-10T07:50:59.383Z,24.87
2018-05-10T07:56:01.671Z,22.47
2018-05-10T08:01:03.070Z,27.57
2018-05-10T08:06:11.500Z,28.80
2018-05-10T08:11:13.215Z,39.67
2018-05-10T08:16:14.536Z,52.77
2018-05-10T08:21:16.600Z,54.37
2018-05-10T08:26:17.919Z,62.87
2018-05-10T08:31:19.252Z,65.80
2018-05-10T08:36:20.549Z,68.73
2018-05-10T08:41:21.870Z,73.17
2018-05-10T08:46:23.174Z,79.20
2018-05-10T08:51:24.476Z,82.97
2018-05-10T08:56:25.780Z,84.50
2018-05-10T09:01:27.111Z,84.50
2018-05-10T09:06:28.438Z,85.20
2018-05-10T09:11:30.490Z,76.17
2018-05-10T09:16:31.794Z,86.67
2018-05-10T09:21:33.094Z,75.03
2018-05-10T09:26:34.426Z,73.13
2018-05-10T09:31:35.782Z,73.70
2018-05-10T09:36:37.054Z,73.70
2018-05-10T09:41:38.364Z,63.33
2018-05-10T09:46:39.653Z,67.67
2018-05-10T09:51:41.001Z,61.10
2018-05-10T09:56:42.319Z,70.47
2018-05-10T10:01:43.645Z,72.37
2018-05-10T10:06:45.691Z,59.67
2018-05-10T10:11:47.000Z,54.77
2018-05-10T10:16:48.322Z,59.20
2018-05-10T10:21:50.376Z,52.83
2018-05-10T10:26:51.703Z,44.33
2018-05-10T10:31:53.114Z,43.83
2018-05-10T10:36:55.170Z,44.83
2018-05-10T10:41:56.489Z,39.07
2018-05-10T10:46:57.823Z,34.27
2018-05-10T10:51:59.195Z,33.67
2018-05-10T10:57:00.627Z,35.57
2018-05-10T11:02:02.110Z,27.60
2018-05-10T11:07:03.589Z,26.73
2018-05-10T11:12:05.683Z,22.27
2018-05-10T11:17:07.711Z,24.20
2018-05-10T11:22:09.669Z,22.13
2018-05-10T11:27:12.156Z,25.33
2018-05-10T11:32:14.161Z,23.47
2018-05-10T11:37:15.749Z,21.73
2018-05-10T11:42:17.145Z,21.57
2018-05-10T11:47:19.098Z,20.60
2018-05-10T11:52:20.434Z,20.10
2018-05-10T11:57:22.468Z,27.13
2018-05-10T12:02:23.959Z,18.33
2018-05-10T12:07:25.884Z,28.43
2018-05-10T12:12:27.257Z,19.83
2018-05-10T12:17:29.176Z,16.10
2018-05-10T12:22:30.615Z,17.67
2018-05-10T12:27:32.395Z,17.63
2018-05-10T12:32:34.685Z,15.10
2018-05-10T12:37:36.014Z,14.17
2018-05-10T12:42:37.697Z,14.97
2018-05-10T12:47:39.067Z,20.70
2018-05-10T12:52:41.140Z,11.90
2018-05-10T12:57:42.478Z,19.70
2018-05-10T13:02:44.646Z,20.77
2018-05-10T13:07:45.897Z,7.83
2018-05-10T13:12:47.234Z,13.30
2018-05-10T13:17:48.610Z,8.93
2018-05-10T13:22:49.923Z,5.93
2018-05-10T13:27:51.395Z,7.63
2018-05-10T13:32:53.033Z,9.70
2018-05-10T13:37:54.498Z,7.60
2018-05-10T13:42:56.223Z,7.10
2018-05-10T13:47:57.836Z,7.10
2018-05-10T13:52:59.402Z,8.83
2018-05-10T13:58:00.859Z,10.63
2018-05-10T14:03:02.427Z,7.00
2018-05-10T14:08:03.946Z,5.73
2018-05-10T14:13:05.410Z,9.47
2018-05-10T14:18:06.884Z,10.00
2018-05-10T14:23:08.410Z,26.53
2018-05-10T14:28:09.958Z,6.10
2018-05-10T14:33:12.887Z,8.80
2018-05-10T14:38:14.983Z,8.97
2018-05-10T14:43:16.308Z,7.47
2018-05-10T14:48:17.688Z,7.43
2018-05-10T14:53:19.754Z,4.80
2018-05-10T14:58:21.087Z,5.70
2018-05-10T15:03:23.205Z,8.97
2018-05-10T15:08:24.541Z,6.73
2018-05-10T15:13:25.876Z,7.33
2018-05-10T15:18:27.185Z,7.63
2018-05-10T15:23:28.494Z,8.07
2018-05-10T15:28:29.849Z,6.90
2018-05-10T15:33:31.174Z,6.57
2018-05-10T15:38:33.276Z,7.97
2018-05-10T15:43:34.846Z,8.37
2018-05-10T15:48:37.014Z,6.13
2018-05-10T15:53:38.337Z,5.97
2018-05-10T15:58:39.684Z,7.53
2018-05-10T16:03:41.039Z,5.77
2018-05-10T16:08:42.362Z,7.13
2018-05-10T16:13:44.542Z,5.80
2018-05-10T16:18:45.954Z,5.30
2018-05-10T16:23:48.121Z,7.70
2018-05-10T16:28:49.827Z,4.50
2018-05-10T16:33:51.319Z,6.70
2018-05-10T16:38:52.659Z,5.43
2018-05-10T16:43:54.070Z,7.03
2018-05-10T16:48:56.139Z,7.10
2018-05-10T16:53:57.458Z,5.20
2018-05-10T16:58:59.158Z,4.07
2018-05-10T17:04:00.496Z,6.27
2018-05-10T17:09:01.995Z,5.10
2018-05-10T17:14:04.472Z,4.30
2018-05-10T17:19:06.390Z,4.87
2018-05-10T17:24:07.746Z,8.70
2018-05-10T17:29:09.476Z,12.10
2018-05-10T17:34:11.554Z,4.47
2018-05-10T17:39:13.421Z,5.33
2018-05-10T17:44:14.919Z,3.83
2018-05-10T17:49:16.285Z,5.10
2018-05-10T17:54:17.643Z,5.50
2018-05-10T17:59:19.720Z,3.20
2018-05-10T18:04:21.748Z,3.13
2018-05-10T18:09:23.968Z,8.20
2018-05-10T18:14:25.382Z,6.60
2018-05-10T18:19:27.477Z,3.40
2018-05-10T18:24:29.540Z,3.13
2018-05-10T18:29:31.587Z,4.10
2018-05-10T18:34:32.928Z,3.57
2018-05-10T18:39:34.235Z,2.80
2018-05-10T18:44:36.398Z,10.10
2018-05-10T18:49:38.119Z,6.10
2018-05-10T18:54:40.390Z,4.50
2018-05-10T18:59:41.795Z,3.67
2018-05-10T19:04:43.109Z,4.20
2018-05-10T19:09:44.453Z,8.17
2018-05-10T19:14:47.373Z,5.97
2018-05-10T19:19:48.719Z,5.80
2018-05-10T19:24:50.040Z,6.33
2018-05-10T19:29:51.542Z,3.40
2018-05-10T19:34:53.598Z,6.47
2018-05-10T19:39:54.925Z,6.90
2018-05-10T19:44:56.293Z,4.93
2018-05-10T19:49:58.648Z,5.47
2018-05-10T19:55:00.181Z,4.47
2018-05-10T20:00:01.510Z,9.10
2018-05-10T20:05:02.849Z,8.00
2018-05-10T20:10:04.194Z,5.20
2018-05-10T20:15:06.274Z,6.67
2018-05-10T20:20:07.608Z,4.90
2018-05-10T20:25:09.690Z,8.20
2018-05-10T20:30:11.040Z,8.27
2018-05-10T20:35:12.376Z,6.73
2018-05-10T20:40:13.757Z,7.30
2018-05-10T20:45:15.087Z,5.43
2018-05-10T20:50:16.422Z,4.70
2018-05-10T20:55:18.117Z,6.17
2018-05-10T21:00:19.477Z,6.37
2018-05-10T21:05:20.859Z,5.23
2018-05-10T21:10:22.227Z,4.70
2018-05-10T21:15:24.281Z,5.30
2018-05-10T21:20:25.617Z,3.43
2018-05-10T21:25:27.046Z,4.53
2018-05-10T21:30:28.412Z,4.30
2018-05-10T21:35:29.732Z,4.40
2018-05-10T21:40:31.093Z,5.33
2018-05-10T21:45:32.453Z,6.20
2018-05-10T21:50:33.778Z,9.20
2018-05-10T21:55:35.120Z,13.23
2018-05-10T22:00:37.123Z,7.70
2018-05-10T22:05:38.479Z,10.70
2018-05-10T22:10:39.825Z,7.50
2018-05-10T22:15:41.138Z,7.70
2018-05-10T22:20:42.461Z,8.70
2018-05-10T22:25:43.767Z,6.33
2018-05-10T22:30:45.094Z,12.47
2018-05-10T22:35:47.187Z,8.03
2018-05-10T22:40:48.524Z,5.60
2018-05-10T22:45:49.872Z,13.60
2018-05-10T22:50:52.004Z,6.87
2018-05-10T22:55:53.421Z,11.03
2018-05-10T23:00:54.716Z,10.03
2018-05-10T23:05:56.059Z,8.50
2018-05-10T23:10:58.118Z,6.83
2018-05-10T23:15:59.449Z,7.93
2018-05-10T23:21:01.524Z,7.90
2018-05-10T23:26:02.871Z,6.33
2018-05-10T23:31:04.164Z,10.10
2018-05-10T23:36:05.500Z,11.00
2018-05-10T23:41:06.841Z,8.03
2018-05-10T23:46:08.231Z,8.43
2018-05-10T23:51:09.564Z,9.10
2018-05-10T23:56:10.889Z,9.90
